UUOO/VOZ METAR and TAF weather

Enter ICAO airport designator
Station Type Date Time Source
UUOO METAR 2019/12/07 07:00 UTC NOAA

UUOO 070700Z 22005MPS 9000 BKN008 00/M01 Q1015 R30/090060 NOSIG RMK QFE748


Station Type Date Time Source
UUOO Decoded METAR 2019/12/07 07:00 UTC NOAA

Voronez, Russia (UUOO) 51-39N 039-15E 104M
Dec 07, 2019 - 02:00 AM EST / 2019.12.07 0700 UTC
Wind: from the SW (220 degrees) at 11 MPH (10 KT):0
Visibility: 5 mile(s):0
Sky conditions: mostly cloudy
Temperature: 32 F (0 C)
Windchill: 23 F (-5 C):1
Dew Point: 30 F (-1 C)
Relative Humidity: 92%
Pressure (altimeter): 29.97 in. Hg (1015 hPa)
ob: UUOO 070700Z 22005MPS 9000 BKN008 00/M01 Q1015 R30/090060 NOSIG RMK QFE748
cycle: 7

Station Type Date Time Source
UUOO TAF 2019/08/12 03:33 UTC NOAA

TAF COR TAF COR UUOO 120159 1203/1212 31003MPS CAVOK

Example: see airport list